sensor_id;sensor_type;location;lat;lon;timestamp;temperature;humidity
20091;DHT22;10205;49.678;6.560;2023-06-24T00:02:14;28.90;41.20
20091;DHT22;10205;49.678;6.560;2023-06-24T00:04:43;28.80;41.20
20091;DHT22;10205;49.678;6.560;2023-06-24T00:07:10;28.80;41.40
20091;DHT22;10205;49.678;6.560;2023-06-24T00:09:37;28.70;41.40
20091;DHT22;10205;49.678;6.560;2023-06-24T00:12:06;28.70;41.50
20091;DHT22;10205;49.678;6.560;2023-06-24T00:14:34;28.60;41.50
20091;DHT22;10205;49.678;6.560;2023-06-24T00:17:02;28.60;41.60
20091;DHT22;10205;49.678;6.560;2023-06-24T00:19:29;28.50;41.60
20091;DHT22;10205;49.678;6.560;2023-06-24T00:21:58;28.50;41.80
20091;DHT22;10205;49.678;6.560;2023-06-24T00:24:29;28.40;41.80
20091;DHT22;10205;49.678;6.560;2023-06-24T00:26:56;28.40;41.80
20091;DHT22;10205;49.678;6.560;2023-06-24T00:29:24;28.30;41.90
20091;DHT22;10205;49.678;6.560;2023-06-24T00:31:51;28.20;41.90
20091;DHT22;10205;49.678;6.560;2023-06-24T00:34:18;28.20;42.10
20091;DHT22;10205;49.678;6.560;2023-06-24T00:36:46;28.10;42.10
20091;DHT22;10205;49.678;6.560;2023-06-24T00:39:14;28.10;42.20
20091;DHT22;10205;49.678;6.560;2023-06-24T00:41:42;28.10;42.30
20091;DHT22;10205;49.678;6.560;2023-06-24T00:44:10;28.00;42.20
20091;DHT22;10205;49.678;6.560;2023-06-24T00:46:37;27.90;42.20
20091;DHT22;10205;49.678;6.560;2023-06-24T00:49:05;27.90;42.30
20091;DHT22;10205;49.678;6.560;2023-06-24T00:51:33;27.80;42.40
20091;DHT22;10205;49.678;6.560;2023-06-24T00:54:02;27.80;42.40
20091;DHT22;10205;49.678;6.560;2023-06-24T00:56:33;27.70;42.40
20091;DHT22;10205;49.678;6.560;2023-06-24T00:59:04;27.70;42.60
20091;DHT22;10205;49.678;6.560;2023-06-24T01:02:06;27.60;42.60
20091;DHT22;10205;49.678;6.560;2023-06-24T01:04:34;27.50;42.60
20091;DHT22;10205;49.678;6.560;2023-06-24T01:07:04;27.50;42.60
20091;DHT22;10205;49.678;6.560;2023-06-24T01:09:32;27.50;42.70
20091;DHT22;10205;49.678;6.560;2023-06-24T01:12:00;27.40;42.70
20091;DHT22;10205;49.678;6.560;2023-06-24T01:14:28;27.40;42.90
20091;DHT22;10205;49.678;6.560;2023-06-24T01:16:59;27.30;42.90
20091;DHT22;10205;49.678;6.560;2023-06-24T01:19:51;27.20;43.00
20091;DHT22;10205;49.678;6.560;2023-06-24T01:26:18;27.10;43.20
20091;DHT22;10205;49.678;6.560;2023-06-24T01:32:07;27.00;43.20
20091;DHT22;10205;49.678;6.560;2023-06-24T01:34:42;27.00;43.30
20091;DHT22;10205;49.678;6.560;2023-06-24T01:37:19;26.90;43.30
20091;DHT22;10205;49.678;6.560;2023-06-24T01:39:57;26.90;43.30
20091;DHT22;10205;49.678;6.560;2023-06-24T01:42:38;26.80;43.50
20091;DHT22;10205;49.678;6.560;2023-06-24T01:45:12;26.80;43.50
20091;DHT22;10205;49.678;6.560;2023-06-24T01:47:44;26.70;43.60
20091;DHT22;10205;49.678;6.560;2023-06-24T01:50:15;26.70;43.60
20091;DHT22;10205;49.678;6.560;2023-06-24T01:52:48;26.60;43.60
20091;DHT22;10205;49.678;6.560;2023-06-24T01:55:21;26.60;43.70
20091;DHT22;10205;49.678;6.560;2023-06-24T01:57:50;26.50;43.70
20091;DHT22;10205;49.678;6.560;2023-06-24T02:00:20;26.50;43.70
20091;DHT22;10205;49.678;6.560;2023-06-24T02:02:50;26.40;43.80
20091;DHT22;10205;49.678;6.560;2023-06-24T02:05:18;26.40;43.90
20091;DHT22;10205;49.678;6.560;2023-06-24T02:07:49;26.30;43.90
20091;DHT22;10205;49.678;6.560;2023-06-24T02:10:19;26.30;44.00
20091;DHT22;10205;49.678;6.560;2023-06-24T02:12:51;26.30;44.10
20091;DHT22;10205;49.678;6.560;2023-06-24T02:15:21;26.20;44.10
20091;DHT22;10205;49.678;6.560;2023-06-24T02:17:52;26.20;44.20
20091;DHT22;10205;49.678;6.560;2023-06-24T02:20:22;26.10;44.20
20091;DHT22;10205;49.678;6.560;2023-06-24T02:22:53;26.10;44.20
20091;DHT22;10205;49.678;6.560;2023-06-24T02:25:22;26.00;44.30
20091;DHT22;10205;49.678;6.560;2023-06-24T02:27:50;26.00;44.40
20091;DHT22;10205;49.678;6.560;2023-06-24T02:30:19;25.90;44.30
20091;DHT22;10205;49.678;6.560;2023-06-24T02:32:48;25.90;44.40
20091;DHT22;10205;49.678;6.560;2023-06-24T02:35:16;25.90;44.50
20091;DHT22;10205;49.678;6.560;2023-06-24T02:37:44;25.80;44.60
20091;DHT22;10205;49.678;6.560;2023-06-24T02:40:12;25.80;44.60
20091;DHT22;10205;49.678;6.560;2023-06-24T02:42:39;25.70;44.60
20091;DHT22;10205;49.678;6.560;2023-06-24T02:45:08;25.70;44.70
20091;DHT22;10205;49.678;6.560;2023-06-24T02:47:36;25.60;44.70
20091;DHT22;10205;49.678;6.560;2023-06-24T02:50:06;25.60;44.80
20091;DHT22;10205;49.678;6.560;2023-06-24T02:52:36;25.60;44.90
20091;DHT22;10205;49.678;6.560;2023-06-24T02:55:05;25.50;44.80
20091;DHT22;10205;49.678;6.560;2023-06-24T02:57:34;25.50;44.80
20091;DHT22;10205;49.678;6.560;2023-06-24T03:00:03;25.50;45.00
20091;DHT22;10205;49.678;6.560;2023-06-24T03:02:34;25.40;44.90
20091;DHT22;10205;49.678;6.560;2023-06-24T03:05:02;25.40;45.00
20091;DHT22;10205;49.678;6.560;2023-06-24T03:07:31;25.30;45.00
20091;DHT22;10205;49.678;6.560;2023-06-24T03:10:02;25.30;45.00
20091;DHT22;10205;49.678;6.560;2023-06-24T03:12:31;25.30;45.20
20091;DHT22;10205;49.678;6.560;2023-06-24T03:14:58;25.20;45.10
20091;DHT22;10205;49.678;6.560;2023-06-24T03:17:26;25.20;45.20
20091;DHT22;10205;49.678;6.560;2023-06-24T03:19:53;25.10;45.20
20091;DHT22;10205;49.678;6.560;2023-06-24T03:22:21;25.10;45.20
20091;DHT22;10205;49.678;6.560;2023-06-24T03:24:49;25.00;45.70
20091;DHT22;10205;49.678;6.560;2023-06-24T03:27:18;25.00;45.30
20091;DHT22;10205;49.678;6.560;2023-06-24T03:29:45;25.00;45.40
20091;DHT22;10205;49.678;6.560;2023-06-24T03:32:12;25.00;45.40
20091;DHT22;10205;49.678;6.560;2023-06-24T03:34:40;24.90;45.40
20091;DHT22;10205;49.678;6.560;2023-06-24T03:37:07;24.90;45.50
20091;DHT22;10205;49.678;6.560;2023-06-24T03:39:34;24.90;45.60
20091;DHT22;10205;49.678;6.560;2023-06-24T03:42:01;24.80;45.60
20091;DHT22;10205;49.678;6.560;2023-06-24T03:44:30;24.80;45.60
20091;DHT22;10205;49.678;6.560;2023-06-24T03:46:57;24.80;45.70
20091;DHT22;10205;49.678;6.560;2023-06-24T03:49:24;24.70;45.70
20091;DHT22;10205;49.678;6.560;2023-06-24T03:51:52;24.70;45.70
20091;DHT22;10205;49.678;6.560;2023-06-24T03:54:19;24.70;45.80
20091;DHT22;10205;49.678;6.560;2023-06-24T03:56:46;24.60;45.90
20091;DHT22;10205;49.678;6.560;2023-06-24T03:59:13;24.60;45.90
20091;DHT22;10205;49.678;6.560;2023-06-24T04:01:42;24.50;45.90
20091;DHT22;10205;49.678;6.560;2023-06-24T04:04:09;24.50;45.90
20091;DHT22;10205;49.678;6.560;2023-06-24T04:06:36;24.50;46.00
20091;DHT22;10205;49.678;6.560;2023-06-24T04:09:04;24.40;46.00
20091;DHT22;10205;49.678;6.560;2023-06-24T04:11:32;24.40;46.00
20091;DHT22;10205;49.678;6.560;2023-06-24T04:13:59;24.40;46.10
20091;DHT22;10205;49.678;6.560;2023-06-24T04:16:27;24.40;46.10
20091;DHT22;10205;49.678;6.560;2023-06-24T04:18:56;24.30;46.10
20091;DHT22;10205;49.678;6.560;2023-06-24T04:21:23;24.30;46.20
20091;DHT22;10205;49.678;6.560;2023-06-24T04:23:51;24.30;46.20
20091;DHT22;10205;49.678;6.560;2023-06-24T04:26:18;24.20;46.20
20091;DHT22;10205;49.678;6.560;2023-06-24T04:28:45;24.20;46.30
20091;DHT22;10205;49.678;6.560;2023-06-24T04:31:12;24.20;46.30
20091;DHT22;10205;49.678;6.560;2023-06-24T04:33:40;24.10;46.40
20091;DHT22;10205;49.678;6.560;2023-06-24T04:36:08;24.10;46.40
20091;DHT22;10205;49.678;6.560;2023-06-24T04:38:36;24.10;46.50
20091;DHT22;10205;49.678;6.560;2023-06-24T04:41:03;24.00;46.40
20091;DHT22;10205;49.678;6.560;2023-06-24T04:43:30;24.00;46.50
20091;DHT22;10205;49.678;6.560;2023-06-24T04:45:57;24.00;46.50
20091;DHT22;10205;49.678;6.560;2023-06-24T04:48:24;24.00;46.60
20091;DHT22;10205;49.678;6.560;2023-06-24T04:50:52;23.90;46.60
20091;DHT22;10205;49.678;6.560;2023-06-24T04:53:21;23.90;46.70
20091;DHT22;10205;49.678;6.560;2023-06-24T04:55:49;23.90;46.80
20091;DHT22;10205;49.678;6.560;2023-06-24T04:58:16;23.80;46.70
20091;DHT22;10205;49.678;6.560;2023-06-24T05:00:43;23.80;46.80
20091;DHT22;10205;49.678;6.560;2023-06-24T05:03:10;23.80;46.80
20091;DHT22;10205;49.678;6.560;2023-06-24T05:05:38;23.80;46.90
20091;DHT22;10205;49.678;6.560;2023-06-24T05:08:06;23.70;46.90
20091;DHT22;10205;49.678;6.560;2023-06-24T05:10:34;23.70;46.90
20091;DHT22;10205;49.678;6.560;2023-06-24T05:13:01;23.70;47.10
20091;DHT22;10205;49.678;6.560;2023-06-24T05:15:28;23.70;47.10
20091;DHT22;10205;49.678;6.560;2023-06-24T05:17:56;23.70;47.80
20091;DHT22;10205;49.678;6.560;2023-06-24T05:20:23;23.60;47.10
20091;DHT22;10205;49.678;6.560;2023-06-24T05:22:51;23.60;47.20
20091;DHT22;10205;49.678;6.560;2023-06-24T05:25:18;23.60;47.30
20091;DHT22;10205;49.678;6.560;2023-06-24T05:27:47;23.50;47.30
20091;DHT22;10205;49.678;6.560;2023-06-24T05:30:14;23.50;47.30
20091;DHT22;10205;49.678;6.560;2023-06-24T05:32:59;23.50;47.30
20091;DHT22;10205;49.678;6.560;2023-06-24T05:35:27;23.50;47.60
20091;DHT22;10205;49.678;6.560;2023-06-24T05:37:54;23.50;47.40
20091;DHT22;10205;49.678;6.560;2023-06-24T05:40:21;23.50;47.50
20091;DHT22;10205;49.678;6.560;2023-06-24T05:42:50;23.40;47.60
20091;DHT22;10205;49.678;6.560;2023-06-24T05:45:17;23.40;47.70
20091;DHT22;10205;49.678;6.560;2023-06-24T05:47:45;23.40;47.70
20091;DHT22;10205;49.678;6.560;2023-06-24T05:50:12;23.40;47.80
20091;DHT22;10205;49.678;6.560;2023-06-24T05:52:40;23.40;47.80
20091;DHT22;10205;49.678;6.560;2023-06-24T05:55:07;23.40;47.90
20091;DHT22;10205;49.678;6.560;2023-06-24T05:57:35;23.40;48.00
20091;DHT22;10205;49.678;6.560;2023-06-24T06:00:04;23.40;48.00
20091;DHT22;10205;49.678;6.560;2023-06-24T06:02:32;23.40;48.20
20091;DHT22;10205;49.678;6.560;2023-06-24T06:05:00;23.40;48.80
20091;DHT22;10205;49.678;6.560;2023-06-24T06:07:27;23.40;48.20
20091;DHT22;10205;49.678;6.560;2023-06-24T06:09:54;23.40;48.30
20091;DHT22;10205;49.678;6.560;2023-06-24T06:12:22;23.40;48.40
20091;DHT22;10205;49.678;6.560;2023-06-24T06:14:49;23.40;48.40
20091;DHT22;10205;49.678;6.560;2023-06-24T06:17:17;23.40;48.50
20091;DHT22;10205;49.678;6.560;2023-06-24T06:19:45;23.40;48.70
20091;DHT22;10205;49.678;6.560;2023-06-24T06:22:12;23.40;48.70
20091;DHT22;10205;49.678;6.560;2023-06-24T06:24:41;23.40;48.70
20091;DHT22;10205;49.678;6.560;2023-06-24T06:27:09;23.50;48.80
20091;DHT22;10205;49.678;6.560;2023-06-24T06:29:37;23.50;48.90
20091;DHT22;10205;49.678;6.560;2023-06-24T06:32:05;23.50;48.80
20091;DHT22;10205;49.678;6.560;2023-06-24T06:34:34;23.50;49.00
20091;DHT22;10205;49.678;6.560;2023-06-24T06:37:02;23.50;49.00
20091;DHT22;10205;49.678;6.560;2023-06-24T06:39:29;23.60;49.00
20091;DHT22;10205;49.678;6.560;2023-06-24T06:41:57;23.60;49.00
20091;DHT22;10205;49.678;6.560;2023-06-24T06:44:24;23.70;49.10
20091;DHT22;10205;49.678;6.560;2023-06-24T06:46:51;23.70;49.10
20091;DHT22;10205;49.678;6.560;2023-06-24T06:49:18;23.70;49.20
20091;DHT22;10205;49.678;6.560;2023-06-24T06:51:47;23.80;49.10
20091;DHT22;10205;49.678;6.560;2023-06-24T06:54:14;23.80;49.20
20091;DHT22;10205;49.678;6.560;2023-06-24T06:56:41;23.80;49.10
20091;DHT22;10205;49.678;6.560;2023-06-24T06:59:09;23.90;49.10
20091;DHT22;10205;49.678;6.560;2023-06-24T07:01:36;23.90;49.20
20091;DHT22;10205;49.678;6.560;2023-06-24T07:04:03;24.00;49.20
20091;DHT22;10205;49.678;6.560;2023-06-24T07:06:31;24.00;49.20
20091;DHT22;10205;49.678;6.560;2023-06-24T07:09:00;24.10;49.50
20091;DHT22;10205;49.678;6.560;2023-06-24T07:11:28;24.10;49.20
20091;DHT22;10205;49.678;6.560;2023-06-24T07:13:55;24.20;49.50
20091;DHT22;10205;49.678;6.560;2023-06-24T07:16:22;24.20;49.20
20091;DHT22;10205;49.678;6.560;2023-06-24T07:18:49;24.30;49.20
20091;DHT22;10205;49.678;6.560;2023-06-24T07:21:16;24.30;49.10
20091;DHT22;10205;49.678;6.560;2023-06-24T07:23:44;24.40;49.30
20091;DHT22;10205;49.678;6.560;2023-06-24T07:26:12;24.40;49.40
20091;DHT22;10205;49.678;6.560;2023-06-24T07:28:40;24.50;49.20
20091;DHT22;10205;49.678;6.560;2023-06-24T07:31:07;24.60;49.20
20091;DHT22;10205;49.678;6.560;2023-06-24T07:33:34;24.60;49.10
20091;DHT22;10205;49.678;6.560;2023-06-24T07:36:03;24.70;49.20
20091;DHT22;10205;49.678;6.560;2023-06-24T07:38:49;24.70;49.00
20091;DHT22;10205;49.678;6.560;2023-06-24T07:41:17;24.80;49.00
20091;DHT22;10205;49.678;6.560;2023-06-24T07:43:45;24.90;48.90
20091;DHT22;10205;49.678;6.560;2023-06-24T07:46:12;25.00;49.00
20091;DHT22;10205;49.678;6.560;2023-06-24T07:48:39;25.00;48.90
20091;DHT22;10205;49.678;6.560;2023-06-24T07:51:06;25.10;48.90
20091;DHT22;10205;49.678;6.560;2023-06-24T07:53:34;25.20;49.80
20091;DHT22;10205;49.678;6.560;2023-06-24T07:56:01;25.20;49.50
20091;DHT22;10205;49.678;6.560;2023-06-24T07:58:30;25.30;49.70
20091;DHT22;10205;49.678;6.560;2023-06-24T08:00:57;25.40;49.70
20091;DHT22;10205;49.678;6.560;2023-06-24T08:03:25;25.50;49.70
20091;DHT22;10205;49.678;6.560;2023-06-24T08:05:52;25.60;49.50
20091;DHT22;10205;49.678;6.560;2023-06-24T08:08:19;25.60;49.50
20091;DHT22;10205;49.678;6.560;2023-06-24T08:10:46;25.70;49.90
20091;DHT22;10205;49.678;6.560;2023-06-24T08:13:14;25.80;49.70
20091;DHT22;10205;49.678;6.560;2023-06-24T08:15:43;25.80;50.20
20091;DHT22;10205;49.678;6.560;2023-06-24T08:18:10;25.90;49.70
20091;DHT22;10205;49.678;6.560;2023-06-24T08:20:38;26.00;49.50
20091;DHT22;10205;49.678;6.560;2023-06-24T08:23:05;26.10;49.90
20091;DHT22;10205;49.678;6.560;2023-06-24T08:25:32;26.20;49.40
20091;DHT22;10205;49.678;6.560;2023-06-24T08:28:00;26.30;49.30
20091;DHT22;10205;49.678;6.560;2023-06-24T08:30:27;26.40;49.30
20091;DHT22;10205;49.678;6.560;2023-06-24T08:32:56;26.40;49.60
20091;DHT22;10205;49.678;6.560;2023-06-24T08:35:23;26.60;49.20
20091;DHT22;10205;49.678;6.560;2023-06-24T08:37:50;26.70;48.90
20091;DHT22;10205;49.678;6.560;2023-06-24T08:40:18;26.80;48.70
20091;DHT22;10205;49.678;6.560;2023-06-24T08:42:45;26.80;48.50
20091;DHT22;10205;49.678;6.560;2023-06-24T08:45:12;26.90;48.30
20091;DHT22;10205;49.678;6.560;2023-06-24T08:47:40;27.00;48.00
20091;DHT22;10205;49.678;6.560;2023-06-24T08:50:12;27.10;47.90
20091;DHT22;10205;49.678;6.560;2023-06-24T08:52:42;27.30;48.10
20091;DHT22;10205;49.678;6.560;2023-06-24T08:55:17;27.40;47.90
20091;DHT22;10205;49.678;6.560;2023-06-24T08:57:48;27.50;47.30
20091;DHT22;10205;49.678;6.560;2023-06-24T09:00:17;27.60;47.20
20091;DHT22;10205;49.678;6.560;2023-06-24T09:02:45;27.70;47.20
20091;DHT22;10205;49.678;6.560;2023-06-24T09:05:13;27.80;47.10
20091;DHT22;10205;49.678;6.560;2023-06-24T09:07:41;27.90;46.90
20091;DHT22;10205;49.678;6.560;2023-06-24T09:10:09;28.00;46.60
20091;DHT22;10205;49.678;6.560;2023-06-24T09:16:17;28.20;46.20
20091;DHT22;10205;49.678;6.560;2023-06-24T09:18:47;28.40;46.20
20091;DHT22;10205;49.678;6.560;2023-06-24T09:21:24;28.50;45.70
20091;DHT22;10205;49.678;6.560;2023-06-24T09:23:53;28.60;45.50
20091;DHT22;10205;49.678;6.560;2023-06-24T09:26:23;28.70;45.60
20091;DHT22;10205;49.678;6.560;2023-06-24T09:28:51;28.80;45.30
20091;DHT22;10205;49.678;6.560;2023-06-24T09:31:18;28.90;45.00
20091;DHT22;10205;49.678;6.560;2023-06-24T09:33:46;29.00;45.00
20091;DHT22;10205;49.678;6.560;2023-06-24T09:36:14;29.10;44.90
20091;DHT22;10205;49.678;6.560;2023-06-24T09:38:43;29.20;44.70
20091;DHT22;10205;49.678;6.560;2023-06-24T09:41:11;29.30;44.50
20091;DHT22;10205;49.678;6.560;2023-06-24T09:43:38;29.50;44.70
20091;DHT22;10205;49.678;6.560;2023-06-24T09:46:07;29.50;44.30
20091;DHT22;10205;49.678;6.560;2023-06-24T09:48:34;29.70;44.20
20091;DHT22;10205;49.678;6.560;2023-06-24T09:51:03;29.80;44.20
20091;DHT22;10205;49.678;6.560;2023-06-24T09:53:31;29.90;44.10
20091;DHT22;10205;49.678;6.560;2023-06-24T09:56:02;30.00;44.10
20091;DHT22;10205;49.678;6.560;2023-06-24T09:58:32;30.10;44.00
20091;DHT22;10205;49.678;6.560;2023-06-24T10:01:03;30.20;43.90
20091;DHT22;10205;49.678;6.560;2023-06-24T10:03:33;30.30;43.40
20091;DHT22;10205;49.678;6.560;2023-06-24T10:06:03;30.40;43.50
20091;DHT22;10205;49.678;6.560;2023-06-24T10:08:38;30.50;43.50
20091;DHT22;10205;49.678;6.560;2023-06-24T10:11:06;30.60;42.80
20091;DHT22;10205;49.678;6.560;2023-06-24T10:13:34;30.70;42.40
20091;DHT22;10205;49.678;6.560;2023-06-24T10:16:02;30.80;42.10
20091;DHT22;10205;49.678;6.560;2023-06-24T10:18:33;30.90;42.00
20091;DHT22;10205;49.678;6.560;2023-06-24T10:21:01;31.00;41.50
20091;DHT22;10205;49.678;6.560;2023-06-24T10:23:31;31.10;41.50
20091;DHT22;10205;49.678;6.560;2023-06-24T10:26:00;31.10;41.40
20091;DHT22;10205;49.678;6.560;2023-06-24T10:31:53;31.30;41.40
20091;DHT22;10205;49.678;6.560;2023-06-24T10:34:27;31.40;41.30
20091;DHT22;10205;49.678;6.560;2023-06-24T10:36:59;31.40;41.20
20091;DHT22;10205;49.678;6.560;2023-06-24T10:39:38;31.50;41.00
20091;DHT22;10205;49.678;6.560;2023-06-24T10:42:29;31.60;40.50
20091;DHT22;10205;49.678;6.560;2023-06-24T10:45:12;31.60;40.50
20091;DHT22;10205;49.678;6.560;2023-06-24T10:47:42;31.70;40.50
20091;DHT22;10205;49.678;6.560;2023-06-24T10:50:11;31.80;39.80
20091;DHT22;10205;49.678;6.560;2023-06-24T10:52:40;31.90;39.20
20091;DHT22;10205;49.678;6.560;2023-06-24T10:55:09;31.90;38.90
20091;DHT22;10205;49.678;6.560;2023-06-24T10:57:39;32.00;39.80
20091;DHT22;10205;49.678;6.560;2023-06-24T11:00:10;32.00;39.40
20091;DHT22;10205;49.678;6.560;2023-06-24T11:02:38;32.20;39.60
20091;DHT22;10205;49.678;6.560;2023-06-24T11:05:06;32.20;39.70
20091;DHT22;10205;49.678;6.560;2023-06-24T11:07:36;32.30;39.70
20091;DHT22;10205;49.678;6.560;2023-06-24T11:10:06;32.40;39.50
20091;DHT22;10205;49.678;6.560;2023-06-24T11:12:36;32.50;39.60
20091;DHT22;10205;49.678;6.560;2023-06-24T11:15:05;32.60;39.50
20091;DHT22;10205;49.678;6.560;2023-06-24T11:17:36;32.70;39.40
20091;DHT22;10205;49.678;6.560;2023-06-24T11:20:07;32.80;39.50
20091;DHT22;10205;49.678;6.560;2023-06-24T11:22:35;32.90;39.10
20091;DHT22;10205;49.678;6.560;2023-06-24T11:25:04;32.90;39.20
20091;DHT22;10205;49.678;6.560;2023-06-24T11:27:32;33.10;38.80
20091;DHT22;10205;49.678;6.560;2023-06-24T11:30:00;33.20;39.10
20091;DHT22;10205;49.678;6.560;2023-06-24T11:32:36;33.20;38.50
20091;DHT22;10205;49.678;6.560;2023-06-24T11:35:05;33.30;38.90
20091;DHT22;10205;49.678;6.560;2023-06-24T11:37:33;33.40;37.70
20091;DHT22;10205;49.678;6.560;2023-06-24T11:40:01;33.50;38.00
20091;DHT22;10205;49.678;6.560;2023-06-24T11:42:30;33.60;38.20
20091;DHT22;10205;49.678;6.560;2023-06-24T11:45:01;33.70;37.80
20091;DHT22;10205;49.678;6.560;2023-06-24T11:47:31;33.80;38.10
20091;DHT22;10205;49.678;6.560;2023-06-24T11:50:02;33.90;37.80
20091;DHT22;10205;49.678;6.560;2023-06-24T11:52:40;34.00;37.90
20091;DHT22;10205;49.678;6.560;2023-06-24T11:55:13;34.10;38.00
20091;DHT22;10205;49.678;6.560;2023-06-24T11:57:50;34.20;36.60
20091;DHT22;10205;49.678;6.560;2023-06-24T12:00:22;34.30;37.10
20091;DHT22;10205;49.678;6.560;2023-06-24T12:02:55;34.40;37.50
20091;DHT22;10205;49.678;6.560;2023-06-24T12:05:26;34.50;36.90
20091;DHT22;10205;49.678;6.560;2023-06-24T12:07:55;34.60;36.60
20091;DHT22;10205;49.678;6.560;2023-06-24T12:10:27;34.70;36.70
20091;DHT22;10205;49.678;6.560;2023-06-24T12:12:56;34.80;37.00
20091;DHT22;10205;49.678;6.560;2023-06-24T12:15:24;34.90;36.40
20091;DHT22;10205;49.678;6.560;2023-06-24T12:17:52;35.00;36.80
20091;DHT22;10205;49.678;6.560;2023-06-24T12:20:19;35.10;35.90
20091;DHT22;10205;49.678;6.560;2023-06-24T12:22:49;35.20;34.90
20091;DHT22;10205;49.678;6.560;2023-06-24T12:25:16;35.30;35.90
20091;DHT22;10205;49.678;6.560;2023-06-24T12:27:45;35.30;36.00
20091;DHT22;10205;49.678;6.560;2023-06-24T12:30:13;35.40;36.20
20091;DHT22;10205;49.678;6.560;2023-06-24T12:32:42;35.50;35.10
20091;DHT22;10205;49.678;6.560;2023-06-24T12:35:09;35.50;35.20
20091;DHT22;10205;49.678;6.560;2023-06-24T12:37:37;35.60;34.30
20091;DHT22;10205;49.678;6.560;2023-06-24T12:40:07;35.70;35.30
20091;DHT22;10205;49.678;6.560;2023-06-24T12:42:34;35.80;34.80
20091;DHT22;10205;49.678;6.560;2023-06-24T12:45:02;35.80;35.20
20091;DHT22;10205;49.678;6.560;2023-06-24T12:47:30;35.90;35.30
20091;DHT22;10205;49.678;6.560;2023-06-24T12:49:57;35.90;35.20
20091;DHT22;10205;49.678;6.560;2023-06-24T12:52:25;36.10;35.30
20091;DHT22;10205;49.678;6.560;2023-06-24T12:54:52;36.10;34.10
20091;DHT22;10205;49.678;6.560;2023-06-24T12:57:20;36.20;34.40
20091;DHT22;10205;49.678;6.560;2023-06-24T12:59:48;36.30;33.90
20091;DHT22;10205;49.678;6.560;2023-06-24T13:02:15;36.40;33.90
20091;DHT22;10205;49.678;6.560;2023-06-24T13:04:42;36.40;34.20
20091;DHT22;10205;49.678;6.560;2023-06-24T13:07:10;36.50;34.50
20091;DHT22;10205;49.678;6.560;2023-06-24T13:09:37;36.60;33.70
20091;DHT22;10205;49.678;6.560;2023-06-24T13:12:05;36.60;32.20
20091;DHT22;10205;49.678;6.560;2023-06-24T13:14:35;36.70;33.30
20091;DHT22;10205;49.678;6.560;2023-06-24T13:17:02;36.70;32.10
20091;DHT22;10205;49.678;6.560;2023-06-24T13:19:30;36.80;32.40
20091;DHT22;10205;49.678;6.560;2023-06-24T13:25:38;36.90;32.00
20091;DHT22;10205;49.678;6.560;2023-06-24T13:28:06;37.00;32.80
20091;DHT22;10205;49.678;6.560;2023-06-24T13:30:34;37.00;32.10
20091;DHT22;10205;49.678;6.560;2023-06-24T13:33:02;37.00;31.50
20091;DHT22;10205;49.678;6.560;2023-06-24T13:35:29;37.10;32.90
20091;DHT22;10205;49.678;6.560;2023-06-24T13:37:57;37.20;32.10
20091;DHT22;10205;49.678;6.560;2023-06-24T13:40:24;37.30;32.90
20091;DHT22;10205;49.678;6.560;2023-06-24T13:42:52;37.30;32.50
20091;DHT22;10205;49.678;6.560;2023-06-24T13:45:19;37.30;32.90
20091;DHT22;10205;49.678;6.560;2023-06-24T13:47:48;37.50;32.40
20091;DHT22;10205;49.678;6.560;2023-06-24T13:50:15;37.50;32.60
20091;DHT22;10205;49.678;6.560;2023-06-24T13:52:42;37.60;32.80
20091;DHT22;10205;49.678;6.560;2023-06-24T13:55:10;37.60;32.20
20091;DHT22;10205;49.678;6.560;2023-06-24T13:57:37;37.70;31.70
20091;DHT22;10205;49.678;6.560;2023-06-24T14:00:06;37.70;31.40
20091;DHT22;10205;49.678;6.560;2023-06-24T14:02:35;37.80;31.60
20091;DHT22;10205;49.678;6.560;2023-06-24T14:05:04;37.90;30.70
20091;DHT22;10205;49.678;6.560;2023-06-24T14:07:32;37.90;31.30
20091;DHT22;10205;49.678;6.560;2023-06-24T14:10:00;38.00;31.10
20091;DHT22;10205;49.678;6.560;2023-06-24T14:12:27;38.00;31.20
20091;DHT22;10205;49.678;6.560;2023-06-24T14:14:54;38.00;30.60
20091;DHT22;10205;49.678;6.560;2023-06-24T14:17:21;38.10;30.00
20091;DHT22;10205;49.678;6.560;2023-06-24T14:19:49;38.10;30.10
20091;DHT22;10205;49.678;6.560;2023-06-24T14:22:18;38.10;30.80
20091;DHT22;10205;49.678;6.560;2023-06-24T14:24:46;38.20;30.50
20091;DHT22;10205;49.678;6.560;2023-06-24T14:27:13;38.20;30.10
20091;DHT22;10205;49.678;6.560;2023-06-24T14:29:41;38.20;29.70
20091;DHT22;10205;49.678;6.560;2023-06-24T14:32:08;38.20;30.50
20091;DHT22;10205;49.678;6.560;2023-06-24T14:34:35;38.30;30.50
20091;DHT22;10205;49.678;6.560;2023-06-24T14:37:04;38.30;30.90
20091;DHT22;10205;49.678;6.560;2023-06-24T14:39:33;38.30;29.80
20091;DHT22;10205;49.678;6.560;2023-06-24T14:42:00;38.30;30.20
20091;DHT22;10205;49.678;6.560;2023-06-24T14:44:28;38.30;30.10
20091;DHT22;10205;49.678;6.560;2023-06-24T14:46:55;38.40;29.60
20091;DHT22;10205;49.678;6.560;2023-06-24T14:49:22;38.40;29.80
20091;DHT22;10205;49.678;6.560;2023-06-24T14:51:52;38.40;30.30
20091;DHT22;10205;49.678;6.560;2023-06-24T14:54:19;38.40;29.30
20091;DHT22;10205;49.678;6.560;2023-06-24T14:56:48;38.40;29.80
20091;DHT22;10205;49.678;6.560;2023-06-24T14:59:15;38.40;29.60
20091;DHT22;10205;49.678;6.560;2023-06-24T15:01:42;38.50;29.80
20091;DHT22;10205;49.678;6.560;2023-06-24T15:04:09;38.50;30.00
20091;DHT22;10205;49.678;6.560;2023-06-24T15:06:37;38.50;30.00
20091;DHT22;10205;49.678;6.560;2023-06-24T15:09:04;38.50;30.10
20091;DHT22;10205;49.678;6.560;2023-06-24T15:11:31;38.60;30.20
20091;DHT22;10205;49.678;6.560;2023-06-24T15:14:00;38.60;30.10
20091;DHT22;10205;49.678;6.560;2023-06-24T15:16:27;38.60;30.00
20091;DHT22;10205;49.678;6.560;2023-06-24T15:18:54;38.60;29.40
20091;DHT22;10205;49.678;6.560;2023-06-24T15:21:21;38.70;29.40
20091;DHT22;10205;49.678;6.560;2023-06-24T15:23:48;38.70;29.40
20091;DHT22;10205;49.678;6.560;2023-06-24T15:26:17;38.70;29.20
20091;DHT22;10205;49.678;6.560;2023-06-24T15:28:44;38.60;29.20
20091;DHT22;10205;49.678;6.560;2023-06-24T15:31:12;38.70;29.50
20091;DHT22;10205;49.678;6.560;2023-06-24T15:33:40;38.70;29.30
20091;DHT22;10205;49.678;6.560;2023-06-24T15:36:07;38.70;29.50
20091;DHT22;10205;49.678;6.560;2023-06-24T15:38:34;38.70;29.70
20091;DHT22;10205;49.678;6.560;2023-06-24T15:41:01;38.70;30.50
20091;DHT22;10205;49.678;6.560;2023-06-24T15:43:28;38.70;30.00
20091;DHT22;10205;49.678;6.560;2023-06-24T15:45:56;38.80;30.00
20091;DHT22;10205;49.678;6.560;2023-06-24T15:48:24;38.80;30.00
20091;DHT22;10205;49.678;6.560;2023-06-24T15:50:51;38.80;29.50
20091;DHT22;10205;49.678;6.560;2023-06-24T15:53:19;38.80;29.70
20091;DHT22;10205;49.678;6.560;2023-06-24T15:55:46;38.90;29.80
20091;DHT22;10205;49.678;6.560;2023-06-24T15:58:13;38.90;29.30